Kattegat — 5BKX3 — position and weather

sailwx.info

Track history (hours):
 
Tides and Currents Weather Stations Pressure Air Temp Water Temp Dewpoint Dewpoint Depression Visibility Wind Speed Wind Dir Waves Ship Positions

Kattegat

Last reported at 2018-Jul-21 15:14 UTC. Time now 2018-Jul-21 17:12 UTC.
Position N 35°53' W 005°31'.

Length 136 m; draft 5.1 m.

Type: Passenger vessel. MMSI: 209405000.

Date/timePositionNaut miles runAvg speedWind from/ knotsBaromVisibWave heightAir tempDewpointWater temp
2018-Jul-21 15:14N 35°53' W 005°31'314.6
2018-Jul-21 15:00N 35°56' W 005°30'715.1
2018-Jul-21 14:31N 36°03' W 005°25'6 5.5
2018-Jul-21 13:30N 36°08' W 005°26'0 0.0
2018-Jul-21 13:00N 36°08' W 005°26'0 0.0
2018-Jul-21 12:30N 36°08' W 005°26'0 0.4
2018-Jul-21 12:00N 36°08' W 005°26'5 9.5
2018-Jul-21 11:30N 36°04' W 005°24'12 5.8
2018-Jul-21 09:24N 35°53' W 005°31'615.7
2018-Jul-21 09:00N 35°59' W 005°28'714.9
2018-Jul-21 08:30N 36°06' W 005°24'3 5.7
2018-Jul-21 08:00N 36°08' W 005°26'0 0.0
2018-Jul-21 07:29N 36°08' W 005°26'0 0.0
2018-Jul-21 06:58N 36°08' W 005°26'0 0.0
2018-Jul-21 06:06N 36°08' W 005°26'0 0.0
2018-Jul-21 06:00N 36°08' W 005°26'1 2.7
2018-Jul-21 05:30N 36°09' W 005°25'816.5
2018-Jul-21 05:00N 36°00' W 005°25'816.6
2018-Jul-21 04:30N 35°54' W 005°31'1 0.3
2018-Jul-21 02:36N 35°53' W 005°31'314.6
2018-Jul-21 02:24N 35°56' W 005°30'614.2
2018-Jul-21 02:01N 36°01' W 005°26'815.3
2018-Jul-21 01:31N 36°08' W 005°24'2 3.0
2018-Jul-21 01:00N 36°08' W 005°26'0 0.0
2018-Jul-21 00:30N 36°08' W 005°26'0 0.0
2018-Jul-21 00:00N 36°08' W 005°26'2 3.7
2018-Jul-20 23:30N 36°07' W 005°24'816.8
2018-Jul-20 23:01N 35°59' W 005°26'8 3.3
2018-Jul-20 20:41N 35°53' W 005°31'1 3.7
2018-Jul-20 20:30N 35°54' W 005°31'612.4
2018-Jul-20 20:00N 35°59' W 005°28'714.4
2018-Jul-20 19:31N 36°05' W 005°24'3 6.2
2018-Jul-20 19:00N 36°08' W 005°26'0 0.0
2018-Jul-20 18:30N 36°08' W 005°26'0 0.0
2018-Jul-20 17:59N 36°08' W 005°26'1 2.5
2018-Jul-20 17:30N 36°09' W 005°26'815.3
2018-Jul-20 17:01N 36°02' W 005°24'7 2.8
2018-Jul-20 14:34N 35°56' W 005°30'115.6
2018-Jul-20 14:31N 35°57' W 005°29'814.9
2018-Jul-20 14:00N 36°04' W 005°24'1 0.2
2018-Jul-20 04:56N 36°05' W 005°24'1 0.1
2018-Jul-19 23:19N 36°05' W 005°23'4 1.1
2018-Jul-19 19:48N 36°02' W 005°25'4 1.9
2018-Jul-19 17:35N 36°05' W 005°23'118.7
2018-Jul-19 17:30N 36°04' W 005°23'5 0.1
2018-Jul-18 06:34N 36°08' W 005°26'0 0.0
2018-Jul-18 06:30N 36°08' W 005°26'0 0.0
2018-Jul-18 05:59N 36°08' W 005°26'0 0.3
2018-Jul-18 05:30N 36°08' W 005°26'510.6
2018-Jul-18 05:00N 36°03' W 005°24'917.5
2018-Jul-18 04:29N 35°55' W 005°30'3 2.0
2018-Jul-18 03:02N 35°53' W 005°31'0 3.6
2018-Jul-18 03:00N 35°53' W 005°31'713.8
2018-Jul-18 02:30N 35°59' W 005°28'815.3
2018-Jul-18 02:00N 36°06' W 005°24'2 4.8
2018-Jul-18 01:30N 36°08' W 005°26'0 0.0
2018-Jul-18 01:00N 36°08' W 005°26'1 2.0
2018-Jul-18 00:31N 36°09' W 005°26'816.1
2018-Jul-18 00:01N 36°01' W 005°25'10 3.6
2018-Jul-17 21:21N 35°53' W 005°31'2 2.7
2018-Jul-17 20:46N 35°55' W 005°31'310.4
2018-Jul-17 20:30N 35°57' W 005°29'714.4
2018-Jul-17 20:00N 36°03' W 005°25'510.3
2018-Jul-17 19:30N 36°08' W 005°26'0 0.6
2018-Jul-17 19:01N 36°08' W 005°26'0 0.0
2018-Jul-17 18:31N 36°08' W 005°26'1 2.7
2018-Jul-17 18:00N 36°09' W 005°25'713.8
2018-Jul-17 17:30N 36°02' W 005°24'7 2.6
2018-Jul-17 14:35N 35°56' W 005°30'116.2
2018-Jul-17 14:30N 35°57' W 005°29'815.5
2018-Jul-17 14:00N 36°04' W 005°24'4 8.7
2018-Jul-17 13:31N 36°08' W 005°26'0 0.0
2018-Jul-17 13:00N 36°08' W 005°26'0 0.0
2018-Jul-17 12:30N 36°08' W 005°26'0 0.0
2018-Jul-17 12:00N 36°08' W 005°26'2 4.3
2018-Jul-17 11:30N 36°07' W 005°24'917.8
2018-Jul-17 11:00N 35°58' W 005°26'4 1.3
2018-Jul-17 08:15N 35°56' W 005°30'12 4.9
2018-Jul-17 05:48N 36°08' W 005°26'1 3.1
2018-Jul-17 05:31N 36°09' W 005°26'714.1
2018-Jul-17 05:00N 36°02' W 005°24'10 5.4
2018-Jul-17 03:05N 35°53' W 005°31'1 6.9
2018-Jul-17 02:59N 35°54' W 005°32'4 8.3
2018-Jul-17 02:31N 35°57' W 005°29'815.6
2018-Jul-17 02:01N 36°04' W 005°24'4 8.3
2018-Jul-17 01:29N 36°08' W 005°26'0 0.0
2018-Jul-17 01:00N 36°08' W 005°26'0 0.0
2018-Jul-17 00:29N 36°08' W 005°26'2 1.6
2018-Jul-16 23:30N 36°08' W 005°24'917.6
2018-Jul-16 23:00N 35°59' W 005°25'8 3.9
2018-Jul-16 20:52N 35°53' W 005°31'512.5
2018-Jul-16 20:30N 35°57' W 005°29'713.4
2018-Jul-16 20:00N 36°03' W 005°25'510.5
2018-Jul-16 19:30N 36°08' W 005°26'0 0.4
2018-Jul-16 19:00N 36°08' W 005°26'0 0.0
2018-Jul-16 18:30N 36°08' W 005°26'0 0.0
2018-Jul-16 18:00N 36°08' W 005°26'2 3.2
2018-Jul-16 17:31N 36°09' W 005°25'917.2
2018-Jul-16 17:01N 36°00' W 005°24'6 2.8
2018-Jul-16 14:44N 35°56' W 005°30'416.3
2018-Jul-16 14:31N 35°59' W 005°27'816.0
2018-Jul-16 14:01N 36°07' W 005°24'2 4.0
2018-Jul-16 13:30N 36°08' W 005°26'0 0.0
2018-Jul-16 12:55N 36°08' W 005°26'0 0.0
2018-Jul-16 12:28N 36°08' W 005°26'4 6.1
2018-Jul-16 11:50N 36°05' W 005°24'618.8
2018-Jul-16 11:30N 35°59' W 005°26'4 1.4
2018-Jul-16 08:31N 35°56' W 005°29'015.6
2018-Jul-16 08:30N 35°56' W 005°29'714.7
2018-Jul-16 08:00N 36°02' W 005°24'611.0
2018-Jul-16 07:29N 36°08' W 005°26'0 0.5
2018-Jul-16 06:59N 36°08' W 005°26'0 0.0
2018-Jul-16 06:31N 36°08' W 005°26'2 4.1
2018-Jul-16 06:00N 36°07' W 005°24'917.5
2018-Jul-16 05:30N 35°59' W 005°26'7 2.6
2018-Jul-16 02:57N 35°53' W 005°31'614.1
2018-Jul-16 02:30N 35°59' W 005°28'815.7
2018-Jul-16 02:01N 36°06' W 005°24'2 5.0
2018-Jul-16 01:30N 36°08' W 005°26'0 0.0
2018-Jul-16 01:00N 36°08' W 005°26'0 0.0
2018-Jul-16 00:30N 36°08' W 005°26'2 3.2
2018-Jul-16 00:00N 36°09' W 005°25'2 3.5
2018-Jul-15 23:30N 36°07' W 005°24'917.9
2018-Jul-15 23:00N 35°59' W 005°25'7 4.1
2018-Jul-15 21:14N 35°53' W 005°31'4 5.5
2018-Jul-15 20:35N 35°56' W 005°30'113.6
2018-Jul-15 20:30N 35°57' W 005°29'612.3
2018-Jul-15 20:00N 36°03' W 005°25'611.3
2018-Jul-15 19:30N 36°08' W 005°26'0 0.2
2018-Jul-15 17:51N 36°08' W 005°26'5 9.7
2018-Jul-15 17:17N 36°03' W 005°23'517.8
2018-Jul-15 17:01N 35°59' W 005°26'7 3.5
2018-Jul-15 14:55N 35°53' W 005°31'614.5
2018-Jul-15 14:31N 35°58' W 005°28'714.6
2018-Jul-15 14:00N 36°05' W 005°24'4 6.8
2018-Jul-15 13:29N 36°08' W 005°26'0 0.0
2018-Jul-15 12:59N 36°08' W 005°26'0 0.0
2018-Jul-15 12:28N 36°08' W 005°26'0 0.3
2018-Jul-15 12:00N 36°08' W 005°26'510.0
2018-Jul-15 11:28N 36°03' W 005°23'817.7
2018-Jul-15 11:00N 35°57' W 005°29'4 2.5
2018-Jul-15 09:28N 35°53' W 005°31'715.1
2018-Jul-15 09:00N 35°59' W 005°27'815.7
2018-Jul-15 08:30N 36°07' W 005°24'2 4.3
2018-Jul-15 08:00N 36°08' W 005°26'0 0.0
2018-Jul-15 07:30N 36°08' W 005°26'0 0.0
2018-Jul-15 06:58N 36°08' W 005°26'0 0.0
2018-Jul-15 06:26N 36°08' W 005°26'1 1.7
2018-Jul-15 06:00N 36°09' W 005°26'713.9
2018-Jul-15 05:30N 36°02' W 005°23'1119.3
2018-Jul-15 04:57N 35°53' W 005°31'0 0.2
2018-Jul-15 03:16N 35°53' W 005°31'416.6
2018-Jul-15 03:00N 35°57' W 005°30'815.7
2018-Jul-15 02:30N 36°04' W 005°25'5 9.0
2018-Jul-15 02:01N 36°08' W 005°26'0 0.0
2018-Jul-15 01:30N 36°08' W 005°26'0 0.0
2018-Jul-15 01:00N 36°08' W 005°26'0 0.0
2018-Jul-15 00:31N 36°08' W 005°26'4 8.2
2018-Jul-15 00:00N 36°04' W 005°24'918.1
2018-Jul-14 23:30N 35°56' W 005°29'1 0.4
2018-Jul-14 20:44N 35°56' W 005°30'314.3
2018-Jul-14 20:30N 35°59' W 005°28'713.9
2018-Jul-14 20:00N 36°05' W 005°24'3 5.8
2018-Jul-14 19:27N 36°08' W 005°26'0 0.0
2018-Jul-14 19:00N 36°08' W 005°26'0 0.0
2018-Jul-14 18:30N 36°08' W 005°26'0 0.0
2018-Jul-14 18:00N 36°08' W 005°26'1 2.5
2018-Jul-14 17:30N 36°09' W 005°25'816.3
2018-Jul-14 17:00N 36°01' W 005°25'917.3
2018-Jul-14 16:29N 35°53' W 005°31'0 0.3
2018-Jul-14 14:55N 35°53' W 005°31'614.6
2018-Jul-14 14:31N 35°58' W 005°29'10 9.4
2018-Jul-14 13:29N 36°08' W 005°26'0 0.0
2018-Jul-14 13:01N 36°08' W 005°26'0 0.0
2018-Jul-14 12:29N 36°08' W 005°26'0 0.0
2018-Jul-14 11:49N 36°08' W 005°26'0 0.2
2018-Jul-14 11:30N 36°08' W 005°26'4 7.8
2018-Jul-14 11:00N 36°05' W 005°24'917.7
2018-Jul-14 10:30N 35°57' W 005°28'4 2.4
2018-Jul-14 08:43N 35°53' W 005°31'314.9
2018-Jul-14 08:29N 35°56' W 005°30'715.4
2018-Jul-14 08:00N 36°02' W 005°25'6 3.4
2018-Jul-14 06:24N 36°08' W 005°26'1 3.4
2018-Jul-14 06:00N 36°09' W 005°25'917.3
2018-Jul-14 05:30N 36°00' W 005°25'9 5.2
2018-Jul-14 03:49N 35°53' W 005°31'1 3.4
2018-Jul-14 03:30N 35°54' W 005°31'714.5
2018-Jul-14 03:00N 36°01' W 005°26'815.8
2018-Jul-14 02:30N 36°08' W 005°25'1 2.8
2018-Jul-14 02:00N 36°08' W 005°26'0 0.0
2018-Jul-14 01:30N 36°08' W 005°26'0 0.0
2018-Jul-14 01:00N 36°08' W 005°26'0 0.0
2018-Jul-14 00:30N 36°08' W 005°26'0 0.3
2018-Jul-14 00:00N 36°08' W 005°26'510.7
2018-Jul-13 23:31N 36°03' W 005°24'8 2.7
2018-Jul-13 20:22N 35°56' W 005°30'514.2
2018-Jul-13 20:00N 36°00' W 005°26'814.9
2018-Jul-13 19:28N 36°08' W 005°24'2 1.6
2018-Jul-13 18:25N 36°08' W 005°26'0 0.0
2018-Jul-13 17:57N 36°08' W 005°26'0 0.0
2018-Jul-13 17:30N 36°08' W 005°26'3 5.2
2018-Jul-13 17:00N 36°07' W 005°23'918.0
2018-Jul-13 16:30N 35°58' W 005°26'3 1.3
2018-Jul-13 14:00N 36°01' W 005°26'812.2
2018-Jul-13 13:23N 36°09' W 005°26'1 0.5
2018-Jul-13 11:48N 36°08' W 005°26'1 2.9
2018-Jul-13 11:18N 36°09' W 005°25'517.3
2018-Jul-13 11:00N 36°04' W 005°23'12 0.9
2018-Jul-12 21:09N 35°53' W 005°31'1 2.7
2018-Jul-12 20:57N 35°53' W 005°31'3 5.7
2018-Jul-12 20:27N 35°56' W 005°30'714.9
2018-Jul-12 20:00N 36°02' W 005°25'714.4
2018-Jul-12 19:31N 36°09' W 005°26'1 2.1
2018-Jul-12 19:00N 36°08' W 005°26'0 0.0
2018-Jul-12 18:27N 36°08' W 005°26'0 0.0
2018-Jul-12 17:55N 36°08' W 005°26'1 1.9
2018-Jul-12 17:30N 36°09' W 005°26'4 8.4
2018-Jul-12 16:59N 36°05' W 005°24'919.5
2018-Jul-12 16:31N 35°56' W 005°28'1 0.6
2018-Jul-12 14:42N 35°56' W 005°30'315.4
2018-Jul-12 14:31N 35°59' W 005°28'713.9
2018-Jul-12 14:00N 36°05' W 005°23'4 4.7
2018-Jul-12 13:10N 36°08' W 005°26'0 0.0
2018-Jul-12 12:58N 36°08' W 005°26'0 0.0
2018-Jul-12 12:09N 36°08' W 005°26'0 0.0
2018-Jul-12 11:55N 36°08' W 005°26'3 5.6
2018-Jul-12 11:25N 36°06' W 005°24'717.7
2018-Jul-12 11:00N 35°59' W 005°26'4 1.3
2018-Jul-12 08:14N 35°56' W 005°29'415.7
2018-Jul-12 08:00N 35°60' W 005°27'1 0.1
2018-Jul-11 20:52N 35°59' W 005°28'8 3.6
2018-Jul-11 18:32N 36°06' W 005°23'117.9
2018-Jul-11 18:30N 36°06' W 005°24'918.8
2018-Jul-11 18:01N 35°57' W 005°28'  
Track history (hours):
 
Tides and Currents Weather Stations Pressure Air Temp Water Temp Dewpoint Dewpoint Depression Visibility Wind Speed Wind Dir Waves Ship Positions

Kattegat

Last reported at 2018-Jul-21 15:14 UTC. Time now 2018-Jul-21 17:12 UTC.
Position N 35°53' W 005°31'.

Length 136 m; draft 5.1 m.

Type: Passenger vessel. MMSI: 209405000.

Date/timePositionNaut miles runAvg speedWind from/ knotsBaromVisibWave heightAir tempDewpointWater temp
2018-Jul-21 15:14N 35°53' W 005°31'314.6
2018-Jul-21 15:00N 35°56' W 005°30'715.1
2018-Jul-21 14:31N 36°03' W 005°25'6 5.5
2018-Jul-21 13:30N 36°08' W 005°26'0 0.0
2018-Jul-21 13:00N 36°08' W 005°26'0 0.0
2018-Jul-21 12:30N 36°08' W 005°26'0 0.4
2018-Jul-21 12:00N 36°08' W 005°26'5 9.5
2018-Jul-21 11:30N 36°04' W 005°24'12 5.8
2018-Jul-21 09:24N 35°53' W 005°31'615.7
2018-Jul-21 09:00N 35°59' W 005°28'714.9
2018-Jul-21 08:30N 36°06' W 005°24'3 5.7
2018-Jul-21 08:00N 36°08' W 005°26'0 0.0
2018-Jul-21 07:29N 36°08' W 005°26'0 0.0
2018-Jul-21 06:58N 36°08' W 005°26'0 0.0
2018-Jul-21 06:06N 36°08' W 005°26'0 0.0
2018-Jul-21 06:00N 36°08' W 005°26'1 2.7
2018-Jul-21 05:30N 36°09' W 005°25'816.5
2018-Jul-21 05:00N 36°00' W 005°25'816.6
2018-Jul-21 04:30N 35°54' W 005°31'1 0.3
2018-Jul-21 02:36N 35°53' W 005°31'314.6
2018-Jul-21 02:24N 35°56' W 005°30'614.2
2018-Jul-21 02:01N 36°01' W 005°26'815.3
2018-Jul-21 01:31N 36°08' W 005°24'2 3.0
2018-Jul-21 01:00N 36°08' W 005°26'0 0.0
2018-Jul-21 00:30N 36°08' W 005°26'0 0.0
2018-Jul-21 00:00N 36°08' W 005°26'2 3.7
2018-Jul-20 23:30N 36°07' W 005°24'816.8
2018-Jul-20 23:01N 35°59' W 005°26'8 3.3
2018-Jul-20 20:41N 35°53' W 005°31'1 3.7
2018-Jul-20 20:30N 35°54' W 005°31'612.4
2018-Jul-20 20:00N 35°59' W 005°28'714.4
2018-Jul-20 19:31N 36°05' W 005°24'3 6.2
2018-Jul-20 19:00N 36°08' W 005°26'0 0.0
2018-Jul-20 18:30N 36°08' W 005°26'0 0.0
2018-Jul-20 17:59N 36°08' W 005°26'1 2.5
2018-Jul-20 17:30N 36°09' W 005°26'815.3
2018-Jul-20 17:01N 36°02' W 005°24'7 2.8
2018-Jul-20 14:34N 35°56' W 005°30'115.6
2018-Jul-20 14:31N 35°57' W 005°29'814.9
2018-Jul-20 14:00N 36°04' W 005°24'1 0.2
2018-Jul-20 04:56N 36°05' W 005°24'1 0.1
2018-Jul-19 23:19N 36°05' W 005°23'4 1.1
2018-Jul-19 19:48N 36°02' W 005°25'4 1.9
2018-Jul-19 17:35N 36°05' W 005°23'118.7
2018-Jul-19 17:30N 36°04' W 005°23'5 0.1
2018-Jul-18 06:34N 36°08' W 005°26'0 0.0
2018-Jul-18 06:30N 36°08' W 005°26'0 0.0
2018-Jul-18 05:59N 36°08' W 005°26'0 0.3
2018-Jul-18 05:30N 36°08' W 005°26'510.6
2018-Jul-18 05:00N 36°03' W 005°24'917.5
2018-Jul-18 04:29N 35°55' W 005°30'3 2.0
2018-Jul-18 03:02N 35°53' W 005°31'0 3.6
2018-Jul-18 03:00N 35°53' W 005°31'713.8
2018-Jul-18 02:30N 35°59' W 005°28'815.3
2018-Jul-18 02:00N 36°06' W 005°24'2 4.8
2018-Jul-18 01:30N 36°08' W 005°26'0 0.0
2018-Jul-18 01:00N 36°08' W 005°26'1 2.0
2018-Jul-18 00:31N 36°09' W 005°26'816.1
2018-Jul-18 00:01N 36°01' W 005°25'10 3.6
2018-Jul-17 21:21N 35°53' W 005°31'2 2.7
2018-Jul-17 20:46N 35°55' W 005°31'310.4
2018-Jul-17 20:30N 35°57' W 005°29'714.4
2018-Jul-17 20:00N 36°03' W 005°25'510.3
2018-Jul-17 19:30N 36°08' W 005°26'0 0.6
2018-Jul-17 19:01N 36°08' W 005°26'0 0.0
2018-Jul-17 18:31N 36°08' W 005°26'1 2.7
2018-Jul-17 18:00N 36°09' W 005°25'713.8
2018-Jul-17 17:30N 36°02' W 005°24'7 2.6
2018-Jul-17 14:35N 35°56' W 005°30'116.2
2018-Jul-17 14:30N 35°57' W 005°29'815.5
2018-Jul-17 14:00N 36°04' W 005°24'4 8.7
2018-Jul-17 13:31N 36°08' W 005°26'0 0.0
2018-Jul-17 13:00N 36°08' W 005°26'0 0.0
2018-Jul-17 12:30N 36°08' W 005°26'0 0.0
2018-Jul-17 12:00N 36°08' W 005°26'2 4.3
2018-Jul-17 11:30N 36°07' W 005°24'917.8
2018-Jul-17 11:00N 35°58' W 005°26'4 1.3
2018-Jul-17 08:15N 35°56' W 005°30'12 4.9
2018-Jul-17 05:48N 36°08' W 005°26'1 3.1
2018-Jul-17 05:31N 36°09' W 005°26'714.1
2018-Jul-17 05:00N 36°02' W 005°24'10 5.4
2018-Jul-17 03:05N 35°53' W 005°31'1 6.9
2018-Jul-17 02:59N 35°54' W 005°32'4 8.3
2018-Jul-17 02:31N 35°57' W 005°29'815.6
2018-Jul-17 02:01N 36°04' W 005°24'4 8.3
2018-Jul-17 01:29N 36°08' W 005°26'0 0.0
2018-Jul-17 01:00N 36°08' W 005°26'0 0.0
2018-Jul-17 00:29N 36°08' W 005°26'2 1.6
2018-Jul-16 23:30N 36°08' W 005°24'917.6
2018-Jul-16 23:00N 35°59' W 005°25'8 3.9
2018-Jul-16 20:52N 35°53' W 005°31'512.5
2018-Jul-16 20:30N 35°57' W 005°29'713.4
2018-Jul-16 20:00N 36°03' W 005°25'510.5
2018-Jul-16 19:30N 36°08' W 005°26'0 0.4
2018-Jul-16 19:00N 36°08' W 005°26'0 0.0
2018-Jul-16 18:30N 36°08' W 005°26'0 0.0
2018-Jul-16 18:00N 36°08' W 005°26'2 3.2
2018-Jul-16 17:31N 36°09' W 005°25'917.2
2018-Jul-16 17:01N 36°00' W 005°24'6 2.8
2018-Jul-16 14:44N 35°56' W 005°30'416.3
2018-Jul-16 14:31N 35°59' W 005°27'816.0
2018-Jul-16 14:01N 36°07' W 005°24'2 4.0
2018-Jul-16 13:30N 36°08' W 005°26'0 0.0
2018-Jul-16 12:55N 36°08' W 005°26'0 0.0
2018-Jul-16 12:28N 36°08' W 005°26'4 6.1
2018-Jul-16 11:50N 36°05' W 005°24'618.8
2018-Jul-16 11:30N 35°59' W 005°26'4 1.4
2018-Jul-16 08:31N 35°56' W 005°29'015.6
2018-Jul-16 08:30N 35°56' W 005°29'714.7
2018-Jul-16 08:00N 36°02' W 005°24'611.0
2018-Jul-16 07:29N 36°08' W 005°26'0 0.5
2018-Jul-16 06:59N 36°08' W 005°26'0 0.0
2018-Jul-16 06:31N 36°08' W 005°26'2 4.1
2018-Jul-16 06:00N 36°07' W 005°24'917.5
2018-Jul-16 05:30N 35°59' W 005°26'7 2.6
2018-Jul-16 02:57N 35°53' W 005°31'614.1
2018-Jul-16 02:30N 35°59' W 005°28'815.7
2018-Jul-16 02:01N 36°06' W 005°24'2 5.0
2018-Jul-16 01:30N 36°08' W 005°26'0 0.0
2018-Jul-16 01:00N 36°08' W 005°26'0 0.0
2018-Jul-16 00:30N 36°08' W 005°26'2 3.2
2018-Jul-16 00:00N 36°09' W 005°25'2 3.5
2018-Jul-15 23:30N 36°07' W 005°24'917.9
2018-Jul-15 23:00N 35°59' W 005°25'7 4.1
2018-Jul-15 21:14N 35°53' W 005°31'4 5.5
2018-Jul-15 20:35N 35°56' W 005°30'113.6
2018-Jul-15 20:30N 35°57' W 005°29'612.3
2018-Jul-15 20:00N 36°03' W 005°25'611.3
2018-Jul-15 19:30N 36°08' W 005°26'0 0.2
2018-Jul-15 17:51N 36°08' W 005°26'5 9.7
2018-Jul-15 17:17N 36°03' W 005°23'517.8
2018-Jul-15 17:01N 35°59' W 005°26'7 3.5
2018-Jul-15 14:55N 35°53' W 005°31'614.5
2018-Jul-15 14:31N 35°58' W 005°28'714.6
2018-Jul-15 14:00N 36°05' W 005°24'4 6.8
2018-Jul-15 13:29N 36°08' W 005°26'0 0.0
2018-Jul-15 12:59N 36°08' W 005°26'0 0.0
2018-Jul-15 12:28N 36°08' W 005°26'0 0.3
2018-Jul-15 12:00N 36°08' W 005°26'510.0
2018-Jul-15 11:28N 36°03' W 005°23'817.7
2018-Jul-15 11:00N 35°57' W 005°29'4 2.5
2018-Jul-15 09:28N 35°53' W 005°31'715.1
2018-Jul-15 09:00N 35°59' W 005°27'815.7
2018-Jul-15 08:30N 36°07' W 005°24'2 4.3
2018-Jul-15 08:00N 36°08' W 005°26'0 0.0
2018-Jul-15 07:30N 36°08' W 005°26'0 0.0
2018-Jul-15 06:58N 36°08' W 005°26'0 0.0
2018-Jul-15 06:26N 36°08' W 005°26'1 1.7
2018-Jul-15 06:00N 36°09' W 005°26'713.9
2018-Jul-15 05:30N 36°02' W 005°23'1119.3
2018-Jul-15 04:57N 35°53' W 005°31'0 0.2
2018-Jul-15 03:16N 35°53' W 005°31'416.6
2018-Jul-15 03:00N 35°57' W 005°30'815.7
2018-Jul-15 02:30N 36°04' W 005°25'5 9.0
2018-Jul-15 02:01N 36°08' W 005°26'0 0.0
2018-Jul-15 01:30N 36°08' W 005°26'0 0.0
2018-Jul-15 01:00N 36°08' W 005°26'0 0.0
2018-Jul-15 00:31N 36°08' W 005°26'4 8.2
2018-Jul-15 00:00N 36°04' W 005°24'918.1
2018-Jul-14 23:30N 35°56' W 005°29'1 0.4
2018-Jul-14 20:44N 35°56' W 005°30'314.3
2018-Jul-14 20:30N 35°59' W 005°28'713.9
2018-Jul-14 20:00N 36°05' W 005°24'3 5.8
2018-Jul-14 19:27N 36°08' W 005°26'0 0.0
2018-Jul-14 19:00N 36°08' W 005°26'0 0.0
2018-Jul-14 18:30N 36°08' W 005°26'0 0.0
2018-Jul-14 18:00N 36°08' W 005°26'1 2.5
2018-Jul-14 17:30N 36°09' W 005°25'816.3
2018-Jul-14 17:00N 36°01' W 005°25'917.3
2018-Jul-14 16:29N 35°53' W 005°31'0 0.3
2018-Jul-14 14:55N 35°53' W 005°31'614.6
2018-Jul-14 14:31N 35°58' W 005°29'10 9.4
2018-Jul-14 13:29N 36°08' W 005°26'0 0.0
2018-Jul-14 13:01N 36°08' W 005°26'0 0.0
2018-Jul-14 12:29N 36°08' W 005°26'0 0.0
2018-Jul-14 11:49N 36°08' W 005°26'0 0.2
2018-Jul-14 11:30N 36°08' W 005°26'4 7.8
2018-Jul-14 11:00N 36°05' W 005°24'917.7
2018-Jul-14 10:30N 35°57' W 005°28'4 2.4
2018-Jul-14 08:43N 35°53' W 005°31'314.9
2018-Jul-14 08:29N 35°56' W 005°30'715.4
2018-Jul-14 08:00N 36°02' W 005°25'6 3.4
2018-Jul-14 06:24N 36°08' W 005°26'1 3.4
2018-Jul-14 06:00N 36°09' W 005°25'917.3
2018-Jul-14 05:30N 36°00' W 005°25'9 5.2
2018-Jul-14 03:49N 35°53' W 005°31'1 3.4
2018-Jul-14 03:30N 35°54' W 005°31'714.5
2018-Jul-14 03:00N 36°01' W 005°26'815.8
2018-Jul-14 02:30N 36°08' W 005°25'1 2.8
2018-Jul-14 02:00N 36°08' W 005°26'0 0.0
2018-Jul-14 01:30N 36°08' W 005°26'0 0.0
2018-Jul-14 01:00N 36°08' W 005°26'0 0.0
2018-Jul-14 00:30N 36°08' W 005°26'0 0.3
2018-Jul-14 00:00N 36°08' W 005°26'510.7
2018-Jul-13 23:31N 36°03' W 005°24'8 2.7
2018-Jul-13 20:22N 35°56' W 005°30'514.2
2018-Jul-13 20:00N 36°00' W 005°26'814.9
2018-Jul-13 19:28N 36°08' W 005°24'2 1.6
2018-Jul-13 18:25N 36°08' W 005°26'0 0.0
2018-Jul-13 17:57N 36°08' W 005°26'0 0.0
2018-Jul-13 17:30N 36°08' W 005°26'3 5.2
2018-Jul-13 17:00N 36°07' W 005°23'918.0
2018-Jul-13 16:30N 35°58' W 005°26'3 1.3
2018-Jul-13 14:00N 36°01' W 005°26'812.2
2018-Jul-13 13:23N 36°09' W 005°26'1 0.5
2018-Jul-13 11:48N 36°08' W 005°26'1 2.9
2018-Jul-13 11:18N 36°09' W 005°25'517.3
2018-Jul-13 11:00N 36°04' W 005°23'12 0.9
2018-Jul-12 21:09N 35°53' W 005°31'1 2.7
2018-Jul-12 20:57N 35°53' W 005°31'3 5.7
2018-Jul-12 20:27N 35°56' W 005°30'714.9
2018-Jul-12 20:00N 36°02' W 005°25'714.4
2018-Jul-12 19:31N 36°09' W 005°26'1 2.1
2018-Jul-12 19:00N 36°08' W 005°26'0 0.0
2018-Jul-12 18:27N 36°08' W 005°26'0 0.0
2018-Jul-12 17:55N 36°08' W 005°26'1 1.9
2018-Jul-12 17:30N 36°09' W 005°26'4 8.4
2018-Jul-12 16:59N 36°05' W 005°24'919.5
2018-Jul-12 16:31N 35°56' W 005°28'1 0.6
2018-Jul-12 14:42N 35°56' W 005°30'315.4
2018-Jul-12 14:31N 35°59' W 005°28'713.9
2018-Jul-12 14:00N 36°05' W 005°23'4 4.7
2018-Jul-12 13:10N 36°08' W 005°26'0 0.0
2018-Jul-12 12:58N 36°08' W 005°26'0 0.0
2018-Jul-12 12:09N 36°08' W 005°26'0 0.0
2018-Jul-12 11:55N 36°08' W 005°26'3 5.6
2018-Jul-12 11:25N 36°06' W 005°24'717.7
2018-Jul-12 11:00N 35°59' W 005°26'4 1.3
2018-Jul-12 08:14N 35°56' W 005°29'415.7
2018-Jul-12 08:00N 35°60' W 005°27'1 0.1
2018-Jul-11 20:52N 35°59' W 005°28'8 3.6
2018-Jul-11 18:32N 36°06' W 005°23'117.9
2018-Jul-11 18:30N 36°06' W 005°24'918.8
2018-Jul-11 18:01N 35°57' W 005°28'  

Dump ship's entire track history